sensor_id;sensor_type;location;lat;lon;timestamp;pressure;altitude;pressure_sealevel;temperature;humidity
11343;BME280;5726;42.160;24.746;2023-05-18T00:00:35;99012.34;;;16.68;100.00
11343;BME280;5726;42.160;24.746;2023-05-18T00:03:01;99002.63;;;16.78;100.00
11343;BME280;5726;42.160;24.746;2023-05-18T00:05:28;98999.34;;;16.73;100.00
11343;BME280;5726;42.160;24.746;2023-05-18T00:07:59;98989.09;;;16.67;100.00
11343;BME280;5726;42.160;24.746;2023-05-18T00:10:24;98985.94;;;16.65;100.00
11343;BME280;5726;42.160;24.746;2023-05-18T00:12:50;98993.16;;;16.73;100.00
11343;BME280;5726;42.160;24.746;2023-05-18T00:15:16;98994.47;;;16.90;100.00
11343;BME280;5726;42.160;24.746;2023-05-18T00:17:41;98991.78;;;16.78;100.00
11343;BME280;5726;42.160;24.746;2023-05-18T00:20:08;98987.41;;;16.74;100.00
11343;BME280;5726;42.160;24.746;2023-05-18T00:22:34;98990.88;;;16.74;100.00
11343;BME280;5726;42.160;24.746;2023-05-18T00:24:59;98990.09;;;16.74;100.00
11343;BME280;5726;42.160;24.746;2023-05-18T00:27:25;98985.91;;;16.88;100.00
11343;BME280;5726;42.160;24.746;2023-05-18T00:29:51;98993.16;;;16.73;100.00
11343;BME280;5726;42.160;24.746;2023-05-18T00:32:16;98984.13;;;16.57;100.00
11343;BME280;5726;42.160;24.746;2023-05-18T00:34:42;98989.56;;;16.57;100.00
11343;BME280;5726;42.160;24.746;2023-05-18T00:37:07;98989.09;;;16.55;100.00
11343;BME280;5726;42.160;24.746;2023-05-18T00:39:32;98981.09;;;16.58;100.00
11343;BME280;5726;42.160;24.746;2023-05-18T00:41:58;98971.75;;;16.56;100.00
11343;BME280;5726;42.160;24.746;2023-05-18T00:44:23;98981.88;;;16.71;100.00
11343;BME280;5726;42.160;24.746;2023-05-18T00:46:49;98976.69;;;16.66;100.00
11343;BME280;5726;42.160;24.746;2023-05-18T00:49:14;98970.41;;;16.62;100.00
11343;BME280;5726;42.160;24.746;2023-05-18T00:51:40;98978.72;;;16.57;100.00
11343;BME280;5726;42.160;24.746;2023-05-18T00:54:06;98982.69;;;16.59;100.00
11343;BME280;5726;42.160;24.746;2023-05-18T00:56:32;98984.13;;;16.57;100.00
11343;BME280;5726;42.160;24.746;2023-05-18T00:59:00;98981.78;;;16.55;100.00
11343;BME280;5726;42.160;24.746;2023-05-18T01:01:28;98991.81;;;16.55;100.00
11343;BME280;5726;42.160;24.746;2023-05-18T01:03:54;98988.44;;;16.46;100.00
11343;BME280;5726;42.160;24.746;2023-05-18T01:06:21;98991.59;;;16.48;100.00
11343;BME280;5726;42.160;24.746;2023-05-18T01:08:51;98987.53;;;16.54;100.00
11343;BME280;5726;42.160;24.746;2023-05-18T01:11:43;98983.94;;;16.50;100.00
11343;BME280;5726;42.160;24.746;2023-05-18T01:14:21;98993.16;;;16.25;100.00
11343;BME280;5726;42.160;24.746;2023-05-18T01:20:04;99000.84;;;16.23;100.00
11343;BME280;5726;42.160;24.746;2023-05-18T01:25:32;99003.84;;;16.22;100.00
11343;BME280;5726;42.160;24.746;2023-05-18T01:28:04;99002.16;;;16.17;100.00
11343;BME280;5726;42.160;24.746;2023-05-18T01:30:33;99001.72;;;16.27;100.00
11343;BME280;5726;42.160;24.746;2023-05-18T01:33:00;98996.06;;;16.20;100.00
11343;BME280;5726;42.160;24.746;2023-05-18T01:35:26;98999.44;;;16.17;100.00
11343;BME280;5726;42.160;24.746;2023-05-18T01:37:51;98993.72;;;16.19;100.00
11343;BME280;5726;42.160;24.746;2023-05-18T01:40:17;98993.84;;;16.34;100.00
11343;BME280;5726;42.160;24.746;2023-05-18T01:42:45;98993.28;;;16.52;100.00
11343;BME280;5726;42.160;24.746;2023-05-18T01:45:20;98994.47;;;16.19;100.00
11343;BME280;5726;42.160;24.746;2023-05-18T01:47:47;99002.13;;;16.05;100.00
11343;BME280;5726;42.160;24.746;2023-05-18T01:50:18;99002.13;;;15.93;100.00
11343;BME280;5726;42.160;24.746;2023-05-18T01:52:57;99007.31;;;15.98;100.00
11343;BME280;5726;42.160;24.746;2023-05-18T01:55:26;99013.31;;;16.16;100.00
11343;BME280;5726;42.160;24.746;2023-05-18T01:57:55;99013.88;;;16.21;100.00
11343;BME280;5726;42.160;24.746;2023-05-18T02:00:21;99012.72;;;16.10;100.00
11343;BME280;5726;42.160;24.746;2023-05-18T02:02:47;99017.72;;;16.20;100.00
11343;BME280;5726;42.160;24.746;2023-05-18T02:05:12;99019.06;;;16.14;100.00
11343;BME280;5726;42.160;24.746;2023-05-18T02:07:39;99020.59;;;16.03;100.00
11343;BME280;5726;42.160;24.746;2023-05-18T02:10:05;99020.75;;;16.07;100.00
11343;BME280;5726;42.160;24.746;2023-05-18T02:12:31;99022.28;;;15.96;100.00
11343;BME280;5726;42.160;24.746;2023-05-18T02:14:57;99021.66;;;15.67;100.00
11343;BME280;5726;42.160;24.746;2023-05-18T02:17:23;99029.97;;;15.74;100.00
11343;BME280;5726;42.160;24.746;2023-05-18T02:19:50;99026.41;;;15.81;100.00
11343;BME280;5726;42.160;24.746;2023-05-18T02:22:16;99031.28;;;15.88;100.00
11343;BME280;5726;42.160;24.746;2023-05-18T02:24:41;99030.91;;;15.77;100.00
11343;BME280;5726;42.160;24.746;2023-05-18T02:27:07;99038.22;;;15.77;100.00
11343;BME280;5726;42.160;24.746;2023-05-18T02:29:32;99041.50;;;15.82;100.00
11343;BME280;5726;42.160;24.746;2023-05-18T02:31:58;99044.03;;;15.99;100.00
11343;BME280;5726;42.160;24.746;2023-05-18T02:34:23;99053.97;;;16.07;100.00
11343;BME280;5726;42.160;24.746;2023-05-18T02:36:49;99045.94;;;15.99;100.00
11343;BME280;5726;42.160;24.746;2023-05-18T02:39:14;99050.78;;;15.93;100.00
11343;BME280;5726;42.160;24.746;2023-05-18T02:41:40;99059.22;;;15.92;100.00
11343;BME280;5726;42.160;24.746;2023-05-18T02:44:05;99048.97;;;15.97;100.00
11343;BME280;5726;42.160;24.746;2023-05-18T02:46:31;99060.22;;;15.87;100.00
11343;BME280;5726;42.160;24.746;2023-05-18T02:48:57;99056.56;;;16.04;100.00
11343;BME280;5726;42.160;24.746;2023-05-18T02:51:23;99054.75;;;16.08;100.00
11343;BME280;5726;42.160;24.746;2023-05-18T02:53:49;99060.00;;;15.92;100.00
11343;BME280;5726;42.160;24.746;2023-05-18T02:56:15;99052.09;;;15.76;100.00
11343;BME280;5726;42.160;24.746;2023-05-18T02:58:42;99057.34;;;15.72;100.00
11343;BME280;5726;42.160;24.746;2023-05-18T03:01:08;99057.50;;;15.76;100.00
11343;BME280;5726;42.160;24.746;2023-05-18T03:03:34;99060.03;;;16.04;100.00
11343;BME280;5726;42.160;24.746;2023-05-18T03:06:03;99066.09;;;15.89;100.00
11343;BME280;5726;42.160;24.746;2023-05-18T03:08:28;99072.16;;;15.86;100.00
11343;BME280;5726;42.160;24.746;2023-05-18T03:10:55;99070.56;;;15.85;100.00
11343;BME280;5726;42.160;24.746;2023-05-18T03:13:21;99078.94;;;15.92;100.00
11343;BME280;5726;42.160;24.746;2023-05-18T03:15:46;99082.28;;;16.10;100.00
11343;BME280;5726;42.160;24.746;2023-05-18T03:18:13;99079.41;;;16.06;100.00
11343;BME280;5726;42.160;24.746;2023-05-18T03:20:39;99080.78;;;16.12;100.00
11343;BME280;5726;42.160;24.746;2023-05-18T03:23:05;99084.91;;;15.86;100.00
11343;BME280;5726;42.160;24.746;2023-05-18T03:25:30;99094.44;;;15.83;100.00
11343;BME280;5726;42.160;24.746;2023-05-18T03:27:57;99093.84;;;15.78;100.00
11343;BME280;5726;42.160;24.746;2023-05-18T03:30:23;99103.16;;;15.69;100.00
11343;BME280;5726;42.160;24.746;2023-05-18T03:32:49;99108.50;;;15.36;100.00
11343;BME280;5726;42.160;24.746;2023-05-18T03:35:14;99104.22;;;15.56;100.00
11343;BME280;5726;42.160;24.746;2023-05-18T03:37:40;99106.25;;;15.79;100.00
11343;BME280;5726;42.160;24.746;2023-05-18T03:40:14;99113.22;;;16.00;100.00
11343;BME280;5726;42.160;24.746;2023-05-18T03:42:41;99109.50;;;15.73;100.00
11343;BME280;5726;42.160;24.746;2023-05-18T03:45:10;99110.56;;;15.60;100.00
11343;BME280;5726;42.160;24.746;2023-05-18T03:47:36;99110.44;;;15.56;100.00
11343;BME280;5726;42.160;24.746;2023-05-18T03:50:03;99113.31;;;15.72;100.00
11343;BME280;5726;42.160;24.746;2023-05-18T03:52:28;99105.66;;;15.74;100.00
11343;BME280;5726;42.160;24.746;2023-05-18T03:54:55;99113.31;;;15.72;100.00
11343;BME280;5726;42.160;24.746;2023-05-18T03:57:21;99117.06;;;15.79;100.00
11343;BME280;5726;42.160;24.746;2023-05-18T03:59:47;99116.75;;;15.80;100.00
11343;BME280;5726;42.160;24.746;2023-05-18T04:02:12;99121.59;;;15.87;100.00
11343;BME280;5726;42.160;24.746;2023-05-18T04:04:38;99126.41;;;16.02;100.00
11343;BME280;5726;42.160;24.746;2023-05-18T04:07:14;99124.88;;;16.13;100.00
11343;BME280;5726;42.160;24.746;2023-05-18T04:09:43;99133.06;;;16.04;100.00
11343;BME280;5726;42.160;24.746;2023-05-18T04:12:12;99129.09;;;16.02;100.00
11343;BME280;5726;42.160;24.746;2023-05-18T04:14:37;99125.44;;;15.86;100.00
11343;BME280;5726;42.160;24.746;2023-05-18T04:17:03;99129.09;;;16.02;100.00
11343;BME280;5726;42.160;24.746;2023-05-18T04:19:32;99135.56;;;16.09;100.00
11343;BME280;5726;42.160;24.746;2023-05-18T04:21:58;99136.13;;;16.35;100.00
11343;BME280;5726;42.160;24.746;2023-05-18T04:24:23;99141.63;;;16.27;100.00
11343;BME280;5726;42.160;24.746;2023-05-18T04:26:51;99136.47;;;16.13;100.00
11343;BME280;5726;42.160;24.746;2023-05-18T04:29:16;99144.16;;;16.11;100.00
11343;BME280;5726;42.160;24.746;2023-05-18T04:31:42;99145.22;;;15.98;100.00
11343;BME280;5726;42.160;24.746;2023-05-18T04:34:09;99145.59;;;16.09;100.00
11343;BME280;5726;42.160;24.746;2023-05-18T04:36:34;99145.47;;;16.05;100.00
11343;BME280;5726;42.160;24.746;2023-05-18T04:39:00;99145.66;;;16.53;100.00
11343;BME280;5726;42.160;24.746;2023-05-18T04:41:32;99150.38;;;16.56;100.00
11343;BME280;5726;42.160;24.746;2023-05-18T04:43:58;99143.63;;;16.62;100.00
11343;BME280;5726;42.160;24.746;2023-05-18T04:46:25;99151.22;;;16.36;100.00
11343;BME280;5726;42.160;24.746;2023-05-18T04:48:51;99147.56;;;16.64;100.00
11343;BME280;5726;42.160;24.746;2023-05-18T04:51:17;99149.94;;;16.77;100.00
11343;BME280;5726;42.160;24.746;2023-05-18T04:53:52;99147.38;;;16.81;100.00
11343;BME280;5726;42.160;24.746;2023-05-18T04:56:18;99154.69;;;16.92;100.00
11343;BME280;5726;42.160;24.746;2023-05-18T04:58:47;99156.97;;;17.14;100.00
11343;BME280;5726;42.160;24.746;2023-05-18T05:01:14;99157.88;;;17.18;100.00
11343;BME280;5726;42.160;24.746;2023-05-18T05:03:40;99168.19;;;17.24;100.00
11343;BME280;5726;42.160;24.746;2023-05-18T05:06:06;99161.28;;;17.27;100.00
11343;BME280;5726;42.160;24.746;2023-05-18T05:08:33;99161.50;;;17.34;100.00
11343;BME280;5726;42.160;24.746;2023-05-18T05:10:59;99161.63;;;17.25;100.00
11343;BME280;5726;42.160;24.746;2023-05-18T05:13:25;99165.19;;;17.18;100.00
11343;BME280;5726;42.160;24.746;2023-05-18T05:15:51;99153.81;;;17.12;100.00
11343;BME280;5726;42.160;24.746;2023-05-18T05:18:16;99158.75;;;17.10;100.00
11343;BME280;5726;42.160;24.746;2023-05-18T05:20:41;99157.88;;;17.18;100.00
11343;BME280;5726;42.160;24.746;2023-05-18T05:23:07;99165.19;;;16.82;100.00
11343;BME280;5726;42.160;24.746;2023-05-18T05:25:32;99171.78;;;16.49;100.00
11343;BME280;5726;42.160;24.746;2023-05-18T05:27:58;99176.66;;;16.55;100.00
11343;BME280;5726;42.160;24.746;2023-05-18T05:30:23;99184.00;;;16.67;100.00
11343;BME280;5726;42.160;24.746;2023-05-18T05:32:49;99179.06;;;16.80;100.00
11343;BME280;5726;42.160;24.746;2023-05-18T05:35:14;99181.66;;;16.77;100.00
11343;BME280;5726;42.160;24.746;2023-05-18T05:37:40;99193.72;;;16.68;100.00
11343;BME280;5726;42.160;24.746;2023-05-18T05:40:06;99195.88;;;16.74;100.00
11343;BME280;5726;42.160;24.746;2023-05-18T05:42:32;99196.44;;;16.79;100.00
11343;BME280;5726;42.160;24.746;2023-05-18T05:44:57;99199.97;;;16.92;100.00
11343;BME280;5726;42.160;24.746;2023-05-18T05:47:23;99197.16;;;17.12;100.00
11343;BME280;5726;42.160;24.746;2023-05-18T05:49:48;99198.19;;;17.08;100.00
11343;BME280;5726;42.160;24.746;2023-05-18T05:52:13;99209.09;;;16.87;100.00
11343;BME280;5726;42.160;24.746;2023-05-18T05:54:40;99204.56;;;16.79;100.00
11343;BME280;5726;42.160;24.746;2023-05-18T05:57:05;99221.28;;;16.81;100.00
11343;BME280;5726;42.160;24.746;2023-05-18T05:59:31;99221.50;;;16.88;100.00
11343;BME280;5726;42.160;24.746;2023-05-18T06:01:56;99218.25;;;16.95;100.00
11343;BME280;5726;42.160;24.746;2023-05-18T06:04:22;99214.53;;;17.11;100.00
11343;BME280;5726;42.160;24.746;2023-05-18T06:06:47;99229.16;;;16.86;100.00
11343;BME280;5726;42.160;24.746;2023-05-18T06:09:13;99230.09;;;17.02;100.00
11343;BME280;5726;42.160;24.746;2023-05-18T06:11:40;99232.16;;;17.17;100.00
11343;BME280;5726;42.160;24.746;2023-05-18T06:14:05;99229.66;;;17.00;100.00
11343;BME280;5726;42.160;24.746;2023-05-18T06:16:31;99238.91;;;16.99;100.00
11343;BME280;5726;42.160;24.746;2023-05-18T06:18:56;99237.97;;;16.83;100.00
11343;BME280;5726;42.160;24.746;2023-05-18T06:21:22;99237.06;;;16.79;100.00
11343;BME280;5726;42.160;24.746;2023-05-18T06:23:47;99235.41;;;16.87;100.00
11343;BME280;5726;42.160;24.746;2023-05-18T06:26:13;99239.97;;;16.74;100.00
11343;BME280;5726;42.160;24.746;2023-05-18T06:28:38;99242.63;;;17.07;100.00
11343;BME280;5726;42.160;24.746;2023-05-18T06:31:04;99251.78;;;17.02;100.00
11343;BME280;5726;42.160;24.746;2023-05-18T06:33:30;99254.94;;;17.04;100.00
11343;BME280;5726;42.160;24.746;2023-05-18T06:35:55;99253.91;;;17.09;100.00
11343;BME280;5726;42.160;24.746;2023-05-18T06:38:21;99255.59;;;17.01;100.00
11343;BME280;5726;42.160;24.746;2023-05-18T06:40:46;99269.41;;;17.08;100.00
11343;BME280;5726;42.160;24.746;2023-05-18T06:43:12;99266.69;;;17.08;100.00
11343;BME280;5726;42.160;24.746;2023-05-18T06:45:37;99269.63;;;17.03;100.00
11343;BME280;5726;42.160;24.746;2023-05-18T06:48:03;99279.16;;;17.21;100.00
11343;BME280;5726;42.160;24.746;2023-05-18T06:50:28;99287.69;;;17.11;100.00
11343;BME280;5726;42.160;24.746;2023-05-18T06:52:54;99282.53;;;17.18;100.00
11343;BME280;5726;42.160;24.746;2023-05-18T06:55:19;99295.75;;;16.87;100.00
11343;BME280;5726;42.160;24.746;2023-05-18T06:57:45;99295.66;;;16.64;100.00
11343;BME280;5726;42.160;24.746;2023-05-18T07:00:10;99300.53;;;17.02;100.00
11343;BME280;5726;42.160;24.746;2023-05-18T07:02:37;99295.41;;;16.89;100.00
11343;BME280;5726;42.160;24.746;2023-05-18T07:05:04;99300.75;;;16.65;100.00
11343;BME280;5726;42.160;24.746;2023-05-18T07:07:29;99302.72;;;16.76;100.00
11343;BME280;5726;42.160;24.746;2023-05-18T07:09:55;99306.31;;;16.80;100.00
11343;BME280;5726;42.160;24.746;2023-05-18T07:12:21;99306.31;;;16.48;100.00
11343;BME280;5726;42.160;24.746;2023-05-18T07:14:47;99304.41;;;16.49;100.00
11343;BME280;5726;42.160;24.746;2023-05-18T07:17:12;99309.16;;;16.31;100.00
11343;BME280;5726;42.160;24.746;2023-05-18T07:19:38;99315.09;;;16.45;100.00
11343;BME280;5726;42.160;24.746;2023-05-18T07:22:03;99310.69;;;16.41;100.00
11343;BME280;5726;42.160;24.746;2023-05-18T07:24:29;99317.28;;;16.52;100.00
11343;BME280;5726;42.160;24.746;2023-05-18T07:26:55;99315.56;;;16.27;100.00
11343;BME280;5726;42.160;24.746;2023-05-18T07:29:20;99317.94;;;16.28;100.00
11343;BME280;5726;42.160;24.746;2023-05-18T07:31:46;99319.97;;;16.31;100.00
11343;BME280;5726;42.160;24.746;2023-05-18T07:34:11;99319.31;;;16.55;100.00
11343;BME280;5726;42.160;24.746;2023-05-18T07:36:37;99319.25;;;16.43;100.00
11343;BME280;5726;42.160;24.746;2023-05-18T07:39:02;99324.47;;;16.48;100.00
11343;BME280;5726;42.160;24.746;2023-05-18T07:41:28;99317.34;;;16.23;100.00
11343;BME280;5726;42.160;24.746;2023-05-18T07:43:55;99321.53;;;16.12;100.00
11343;BME280;5726;42.160;24.746;2023-05-18T07:46:21;99323.44;;;16.12;100.00
11343;BME280;5726;42.160;24.746;2023-05-18T07:48:46;99320.50;;;16.25;100.00
11343;BME280;5726;42.160;24.746;2023-05-18T07:51:12;99320.78;;;16.03;100.00
11343;BME280;5726;42.160;24.746;2023-05-18T07:53:37;99325.00;;;15.92;100.00
11343;BME280;5726;42.160;24.746;2023-05-18T07:56:05;99331.69;;;16.15;100.00
11343;BME280;5726;42.160;24.746;2023-05-18T07:58:32;99328.41;;;16.10;100.00
11343;BME280;5726;42.160;24.746;2023-05-18T08:00:57;99324.00;;;16.26;100.00
11343;BME280;5726;42.160;24.746;2023-05-18T08:03:23;99324.41;;;16.36;100.00
11343;BME280;5726;42.160;24.746;2023-05-18T08:05:48;99338.00;;;16.68;100.00
11343;BME280;5726;42.160;24.746;2023-05-18T08:08:13;99335.72;;;16.70;100.00
11343;BME280;5726;42.160;24.746;2023-05-18T08:10:42;99342.19;;;16.77;100.00
11343;BME280;5726;42.160;24.746;2023-05-18T08:13:07;99347.47;;;16.94;100.00
11343;BME280;5726;42.160;24.746;2023-05-18T08:15:34;99348.38;;;16.98;100.00
11343;BME280;5726;42.160;24.746;2023-05-18T08:18:00;99351.44;;;17.09;100.00
11343;BME280;5726;42.160;24.746;2023-05-18T08:20:25;99363.91;;;17.42;100.00
11343;BME280;5726;42.160;24.746;2023-05-18T08:22:54;99359.47;;;17.37;100.00
11343;BME280;5726;42.160;24.746;2023-05-18T08:25:20;99371.06;;;17.26;100.00
11343;BME280;5726;42.160;24.746;2023-05-18T08:27:46;99378.47;;;17.49;100.00
11343;BME280;5726;42.160;24.746;2023-05-18T08:30:11;99368.31;;;17.58;100.00
11343;BME280;5726;42.160;24.746;2023-05-18T08:32:37;99374.88;;;17.57;100.00
11343;BME280;5726;42.160;24.746;2023-05-18T08:35:03;99380.38;;;17.49;100.00
11343;BME280;5726;42.160;24.746;2023-05-18T08:37:30;99388.53;;;17.61;100.00
11343;BME280;5726;42.160;24.746;2023-05-18T08:39:56;99384.28;;;17.72;100.00
11343;BME280;5726;42.160;24.746;2023-05-18T08:42:26;99384.03;;;17.65;100.00
11343;BME280;5726;42.160;24.746;2023-05-18T08:47:23;99391.16;;;17.69;100.00
11343;BME280;5726;42.160;24.746;2023-05-18T08:49:51;99403.94;;;17.80;100.00
11343;BME280;5726;42.160;24.746;2023-05-18T08:52:17;99405.06;;;17.91;100.00
11343;BME280;5726;42.160;24.746;2023-05-18T08:54:44;99402.13;;;18.08;100.00
11343;BME280;5726;42.160;24.746;2023-05-18T08:57:11;99410.41;;;18.12;100.00
11343;BME280;5726;42.160;24.746;2023-05-18T08:59:39;99404.53;;;18.21;100.00
11343;BME280;5726;42.160;24.746;2023-05-18T09:02:06;99418.44;;;18.20;100.00
11343;BME280;5726;42.160;24.746;2023-05-18T09:04:32;99412.56;;;18.30;100.00
11343;BME280;5726;42.160;24.746;2023-05-18T09:07:01;99419.56;;;18.55;100.00
11343;BME280;5726;42.160;24.746;2023-05-18T09:09:28;99421.94;;;18.56;100.00
11343;BME280;5726;42.160;24.746;2023-05-18T09:11:55;99421.38;;;18.27;100.00
11343;BME280;5726;42.160;24.746;2023-05-18T09:14:20;99417.22;;;18.29;100.00
11343;BME280;5726;42.160;24.746;2023-05-18T09:16:51;99422.13;;;18.63;100.00
11343;BME280;5726;42.160;24.746;2023-05-18T09:19:16;99426.66;;;18.59;100.00
11343;BME280;5726;42.160;24.746;2023-05-18T09:21:42;99428.91;;;18.57;100.00
11343;BME280;5726;42.160;24.746;2023-05-18T09:24:07;99426.09;;;18.54;100.00
11343;BME280;5726;42.160;24.746;2023-05-18T09:26:33;99440.81;;;18.53;100.00
11343;BME280;5726;42.160;24.746;2023-05-18T09:28:59;99429.75;;;18.34;100.00
11343;BME280;5726;42.160;24.746;2023-05-18T09:31:24;99442.13;;;18.70;100.00
11343;BME280;5726;42.160;24.746;2023-05-18T09:33:51;99446.66;;;18.78;100.00
11343;BME280;5726;42.160;24.746;2023-05-18T09:36:23;99440.97;;;18.83;100.00
11343;BME280;5726;42.160;24.746;2023-05-18T09:38:50;99447.66;;;18.86;100.00
11343;BME280;5726;42.160;24.746;2023-05-18T09:41:16;99444.28;;;18.77;100.00
11343;BME280;5726;42.160;24.746;2023-05-18T09:43:48;99450.44;;;19.01;100.00
11343;BME280;5726;42.160;24.746;2023-05-18T09:46:15;99447.41;;;19.03;100.00
11343;BME280;5726;42.160;24.746;2023-05-18T09:48:45;99460.56;;;19.28;100.00
11343;BME280;5726;42.160;24.746;2023-05-18T09:51:11;99462.59;;;19.31;100.00
11343;BME280;5726;42.160;24.746;2023-05-18T09:53:44;99464.72;;;19.10;82.39
11343;BME280;5726;42.160;24.746;2023-05-18T09:56:11;99468.06;;;19.19;82.92
11343;BME280;5726;42.160;24.746;2023-05-18T09:58:39;99463.34;;;19.16;80.73
11343;BME280;5726;42.160;24.746;2023-05-18T10:01:05;99462.44;;;19.12;81.07
11343;BME280;5726;42.160;24.746;2023-05-18T10:03:35;99455.69;;;19.33;84.20
11343;BME280;5726;42.160;24.746;2023-05-18T10:06:06;99458.41;;;19.33;84.47
11343;BME280;5726;42.160;24.746;2023-05-18T10:08:33;99458.44;;;19.49;82.38
11343;BME280;5726;42.160;24.746;2023-05-18T10:10:59;99463.63;;;19.54;81.60
11343;BME280;5726;42.160;24.746;2023-05-18T10:13:27;99467.09;;;19.66;82.79
11343;BME280;5726;42.160;24.746;2023-05-18T10:16:00;99464.38;;;19.81;84.10
11343;BME280;5726;42.160;24.746;2023-05-18T10:18:31;99467.16;;;19.69;81.31
11343;BME280;5726;42.160;24.746;2023-05-18T10:21:01;99466.19;;;19.77;80.57
11343;BME280;5726;42.160;24.746;2023-05-18T10:23:30;99472.53;;;19.81;81.61
11343;BME280;5726;42.160;24.746;2023-05-18T10:25:56;99471.78;;;19.96;80.16
11343;BME280;5726;42.160;24.746;2023-05-18T10:28:41;99478.06;;;19.85;78.06
11343;BME280;5726;42.160;24.746;2023-05-18T10:31:08;99479.53;;;19.67;78.32
11343;BME280;5726;42.160;24.746;2023-05-18T10:33:35;99475.31;;;19.69;78.66
11343;BME280;5726;42.160;24.746;2023-05-18T10:36:02;99466.53;;;19.61;78.47
11343;BME280;5726;42.160;24.746;2023-05-18T10:38:28;99468.22;;;19.80;78.50
11343;BME280;5726;42.160;24.746;2023-05-18T10:40:56;99475.06;;;19.74;78.43
11343;BME280;5726;42.160;24.746;2023-05-18T10:43:23;99470.66;;;19.97;78.21
11343;BME280;5726;42.160;24.746;2023-05-18T10:45:57;99475.13;;;20.05;79.40
11343;BME280;5726;42.160;24.746;2023-05-18T10:48:23;99477.16;;;20.08;78.80
11343;BME280;5726;42.160;24.746;2023-05-18T10:50:54;99482.31;;;20.13;78.67
11343;BME280;5726;42.160;24.746;2023-05-18T10:53:21;99478.84;;;19.97;78.40
11343;BME280;5726;42.160;24.746;2023-05-18T10:55:47;99481.09;;;19.95;77.97
11343;BME280;5726;42.160;24.746;2023-05-18T10:58:17;99473.94;;;19.75;78.57
11343;BME280;5726;42.160;24.746;2023-05-18T11:00:47;99480.06;;;19.72;79.00
11343;BME280;5726;42.160;24.746;2023-05-18T11:03:15;99484.53;;;20.08;78.14
11343;BME280;5726;42.160;24.746;2023-05-18T11:05:40;99478.38;;;19.95;78.48
11343;BME280;5726;42.160;24.746;2023-05-18T11:08:06;99476.84;;;19.82;80.14
11343;BME280;5726;42.160;24.746;2023-05-18T11:10:34;99483.78;;;19.80;78.25
11343;BME280;5726;42.160;24.746;2023-05-18T11:13:00;99487.16;;;19.62;79.24
11343;BME280;5726;42.160;24.746;2023-05-18T11:18:17;99494.69;;;19.95;79.21
11343;BME280;5726;42.160;24.746;2023-05-18T11:20:44;99496.66;;;19.67;81.38
11343;BME280;5726;42.160;24.746;2023-05-18T11:23:10;99491.72;;;19.58;81.78
11343;BME280;5726;42.160;24.746;2023-05-18T11:25:39;99496.25;;;19.54;81.51
11343;BME280;5726;42.160;24.746;2023-05-18T11:28:11;99495.75;;;19.64;81.04
11343;BME280;5726;42.160;24.746;2023-05-18T11:35:57;99500.41;;;19.36;83.22
11343;BME280;5726;42.160;24.746;2023-05-18T11:41:34;99500.66;;;19.31;86.01
11343;BME280;5726;42.160;24.746;2023-05-18T11:47:01;99502.41;;;19.12;89.51
11343;BME280;5726;42.160;24.746;2023-05-18T11:49:29;99501.94;;;19.21;89.47
11343;BME280;5726;42.160;24.746;2023-05-18T11:54:56;99522.28;;;19.39;89.24
11343;BME280;5726;42.160;24.746;2023-05-18T11:59:55;99514.91;;;18.77;95.24
11343;BME280;5726;42.160;24.746;2023-05-18T12:02:26;99508.00;;;18.79;97.07
11343;BME280;5726;42.160;24.746;2023-05-18T12:05:00;99509.13;;;18.90;97.47
11343;BME280;5726;42.160;24.746;2023-05-18T12:07:27;99500.38;;;18.97;98.39
11343;BME280;5726;42.160;24.746;2023-05-18T12:09:58;99505.47;;;19.10;98.05
11343;BME280;5726;42.160;24.746;2023-05-18T12:12:26;99510.22;;;19.01;99.34
11343;BME280;5726;42.160;24.746;2023-05-18T12:14:59;99515.94;;;18.72;100.00
11343;BME280;5726;42.160;24.746;2023-05-18T12:17:37;99521.56;;;19.03;99.74
11343;BME280;5726;42.160;24.746;2023-05-18T12:20:03;99518.38;;;19.13;99.22
11343;BME280;5726;42.160;24.746;2023-05-18T12:22:29;99519.50;;;19.00;99.42
11343;BME280;5726;42.160;24.746;2023-05-18T12:24:54;99521.56;;;18.91;98.58
11343;BME280;5726;42.160;24.746;2023-05-18T12:27:20;99522.03;;;18.81;100.00
11343;BME280;5726;42.160;24.746;2023-05-18T12:29:46;99526.66;;;18.81;100.00
11343;BME280;5726;42.160;24.746;2023-05-18T12:32:12;99528.34;;;18.85;100.00
11343;BME280;5726;42.160;24.746;2023-05-18T12:34:38;99527.91;;;18.95;100.00
11343;BME280;5726;42.160;24.746;2023-05-18T12:37:05;99531.41;;;18.84;100.00
11343;BME280;5726;42.160;24.746;2023-05-18T12:39:32;99531.66;;;18.79;100.00
11343;BME280;5726;42.160;24.746;2023-05-18T12:42:10;99526.47;;;18.74;100.00
11343;BME280;5726;42.160;24.746;2023-05-18T12:44:37;99526.88;;;19.12;100.00
11343;BME280;5726;42.160;24.746;2023-05-18T12:47:03;99528.16;;;18.78;95.77
11343;BME280;5726;42.160;24.746;2023-05-18T12:49:33;99527.00;;;18.79;96.05
11343;BME280;5726;42.160;24.746;2023-05-18T12:52:07;99532.91;;;18.81;97.36
11343;BME280;5726;42.160;24.746;2023-05-18T12:54:32;99536.53;;;18.73;98.08
11343;BME280;5726;42.160;24.746;2023-05-18T12:56:58;99535.16;;;18.79;99.37
11343;BME280;5726;42.160;24.746;2023-05-18T12:59:25;99539.03;;;18.78;100.00
11343;BME280;5726;42.160;24.746;2023-05-18T13:01:53;99533.94;;;18.65;100.00
11343;BME280;5726;42.160;24.746;2023-05-18T13:04:18;99529.97;;;18.86;100.00
11343;BME280;5726;42.160;24.746;2023-05-18T13:06:44;99541.06;;;18.81;100.00
11343;BME280;5726;42.160;24.746;2023-05-18T13:09:13;99546.25;;;18.98;99.96
11343;BME280;5726;42.160;24.746;2023-05-18T13:11:40;99546.34;;;18.90;99.38
11343;BME280;5726;42.160;24.746;2023-05-18T13:14:07;99538.78;;;18.95;99.43
11343;BME280;5726;42.160;24.746;2023-05-18T13:16:36;99534.69;;;19.13;98.81
11343;BME280;5726;42.160;24.746;2023-05-18T13:19:04;99546.66;;;19.24;99.12